createdAt,value
2017-07-14T00:02:00.715Z,2.30
2017-07-14T00:04:29.042Z,2.37
2017-07-14T00:06:56.606Z,2.70
2017-07-14T00:09:24.202Z,2.73
2017-07-14T00:11:52.537Z,2.53
2017-07-14T00:14:20.117Z,2.50
2017-07-14T00:16:47.704Z,2.60
2017-07-14T00:19:15.289Z,2.10
2017-07-14T00:21:42.856Z,2.73
2017-07-14T00:24:10.437Z,2.70
2017-07-14T00:26:38.001Z,2.10
2017-07-14T00:29:05.567Z,2.47
2017-07-14T00:31:33.129Z,2.30
2017-07-14T00:34:00.702Z,2.30
2017-07-14T00:36:29.043Z,1.97
2017-07-14T00:38:56.601Z,2.33
2017-07-14T00:41:24.201Z,2.37
2017-07-14T00:43:52.527Z,1.70
2017-07-14T00:46:20.083Z,2.20
2017-07-14T00:48:47.655Z,2.03
2017-07-14T00:51:15.214Z,2.03
2017-07-14T00:53:42.814Z,2.47
2017-07-14T00:56:11.143Z,2.60
2017-07-14T00:58:38.724Z,2.27
2017-07-14T01:01:06.280Z,2.10
2017-07-14T01:03:33.863Z,2.30
2017-07-14T01:06:02.193Z,1.90
2017-07-14T01:08:30.058Z,2.20
2017-07-14T01:10:57.633Z,1.93
2017-07-14T01:13:25.213Z,2.00
2017-07-14T01:15:52.801Z,2.00
2017-07-14T01:18:21.129Z,1.87
2017-07-14T01:20:48.706Z,2.20
2017-07-14T01:23:16.272Z,2.30
2017-07-14T01:25:43.838Z,2.30
2017-07-14T01:28:12.166Z,2.73
2017-07-14T01:30:39.741Z,2.40
2017-07-14T01:33:07.570Z,2.57
2017-07-14T01:35:35.160Z,2.40
2017-07-14T01:38:02.743Z,2.50
2017-07-14T01:40:30.311Z,2.63
2017-07-14T01:42:58.636Z,2.57
2017-07-14T01:45:26.219Z,2.50
2017-07-14T01:47:53.772Z,2.90
2017-07-14T01:50:21.330Z,2.27
2017-07-14T01:52:48.914Z,2.87
2017-07-14T01:55:16.498Z,2.70
2017-07-14T01:57:44.050Z,2.30
2017-07-14T02:00:12.397Z,2.00
2017-07-14T02:02:40.104Z,2.50
2017-07-14T02:05:07.686Z,2.67
2017-07-14T02:07:35.246Z,2.70
2017-07-14T02:10:02.851Z,2.27
2017-07-14T02:12:30.424Z,2.50
2017-07-14T02:14:58.767Z,2.60
2017-07-14T02:17:26.341Z,2.97
2017-07-14T02:19:53.925Z,3.27
2017-07-14T02:22:21.504Z,3.10
2017-07-14T02:24:49.076Z,3.00
2017-07-14T02:27:16.635Z,2.60
2017-07-14T02:29:44.220Z,2.90
2017-07-14T02:32:11.773Z,2.90
2017-07-14T02:34:39.342Z,3.17
2017-07-14T02:37:06.907Z,3.10
2017-07-14T02:39:34.481Z,3.15
2017-07-14T02:42:02.838Z,3.37
2017-07-14T02:44:30.401Z,3.08
2017-07-14T02:46:57.981Z,2.23
2017-07-14T02:49:25.553Z,2.70
2017-07-14T02:51:53.129Z,2.10
2017-07-14T02:54:20.704Z,2.30
2017-07-14T02:56:48.280Z,2.30
2017-07-14T02:59:15.844Z,2.10
2017-07-14T03:01:43.417Z,2.20
2017-07-14T03:04:10.988Z,2.30
2017-07-14T03:06:39.324Z,2.23
2017-07-14T03:09:06.904Z,2.63
2017-07-14T03:11:34.488Z,2.07
2017-07-14T03:14:02.815Z,2.77
2017-07-14T03:16:30.392Z,2.23
2017-07-14T03:18:57.961Z,2.03
2017-07-14T03:21:25.530Z,2.30
2017-07-14T03:23:53.107Z,2.60
2017-07-14T03:26:21.447Z,2.17
2017-07-14T03:28:49.009Z,2.67
2017-07-14T03:31:16.577Z,2.00
2017-07-14T03:33:44.151Z,2.93
2017-07-14T03:36:12.498Z,2.57
2017-07-14T03:38:40.061Z,2.13
2017-07-14T03:41:07.660Z,2.70
2017-07-14T03:43:35.214Z,2.80
2017-07-14T03:46:02.793Z,2.50
2017-07-14T03:48:30.350Z,2.10
2017-07-14T03:50:57.914Z,2.00
2017-07-14T03:53:25.492Z,2.20
2017-07-14T03:55:53.076Z,2.67
2017-07-14T03:58:20.637Z,2.40
2017-07-14T04:00:48.211Z,2.30
2017-07-14T04:03:16.644Z,2.47
2017-07-14T04:05:44.223Z,2.47
2017-07-14T04:08:11.818Z,2.60
2017-07-14T04:10:39.391Z,2.33
2017-07-14T04:13:06.964Z,2.67
2017-07-14T04:15:34.555Z,2.57
2017-07-14T04:18:02.128Z,2.63
2017-07-14T04:20:29.694Z,2.33
2017-07-14T04:22:57.271Z,2.50
2017-07-14T04:25:25.617Z,2.17
2017-07-14T04:27:53.194Z,3.10
2017-07-14T04:30:21.564Z,2.10
2017-07-14T04:32:49.135Z,2.47
2017-07-14T04:35:17.463Z,2.33
2017-07-14T04:37:45.042Z,3.00
2017-07-14T04:40:12.615Z,2.90
2017-07-14T04:42:40.310Z,2.90
2017-07-14T04:45:07.866Z,3.47
2017-07-14T04:47:36.198Z,3.10
2017-07-14T04:50:03.801Z,2.13
2017-07-14T04:52:31.385Z,2.53
2017-07-14T04:54:58.941Z,3.00
2017-07-14T04:57:26.518Z,3.47
2017-07-14T04:59:54.080Z,2.80
2017-07-14T05:02:21.686Z,2.83
2017-07-14T05:04:50.013Z,3.30
2017-07-14T05:07:17.592Z,2.30
2017-07-14T05:09:45.159Z,3.10
2017-07-14T05:12:12.734Z,3.27
2017-07-14T05:14:40.303Z,3.23
2017-07-14T05:17:07.879Z,4.17
2017-07-14T05:19:35.441Z,2.80
2017-07-14T05:22:03.860Z,3.47
2017-07-14T05:24:31.416Z,3.03
2017-07-14T05:26:58.979Z,2.97
2017-07-14T05:29:26.548Z,3.00
2017-07-14T05:31:54.128Z,4.30
2017-07-14T05:34:22.469Z,3.00
2017-07-14T05:36:50.046Z,3.43
2017-07-14T05:39:17.595Z,3.30
2017-07-14T05:41:45.157Z,4.00
2017-07-14T05:44:12.717Z,3.43
2017-07-14T05:46:40.285Z,3.80
2017-07-14T05:49:08.625Z,3.58
2017-07-14T05:51:36.189Z,3.73
2017-07-14T05:54:03.758Z,3.67
2017-07-14T05:56:31.324Z,3.90
2017-07-14T05:58:58.927Z,4.30
2017-07-14T06:01:26.493Z,3.80
2017-07-14T06:03:54.077Z,3.80
2017-07-14T06:06:21.668Z,4.90
2017-07-14T06:08:49.245Z,4.10
2017-07-14T06:11:17.570Z,4.40
2017-07-14T06:13:45.148Z,4.67
2017-07-14T06:16:12.710Z,4.43
2017-07-14T06:18:41.067Z,4.90
2017-07-14T06:21:08.725Z,3.93
2017-07-14T06:23:36.342Z,4.10
2017-07-14T06:26:04.043Z,5.03
2017-07-14T06:28:31.655Z,4.67
2017-07-14T06:30:59.446Z,4.73
2017-07-14T06:33:27.029Z,4.20
2017-07-14T06:35:54.599Z,5.10
2017-07-14T06:38:22.174Z,4.40
2017-07-14T06:40:49.749Z,4.43
2017-07-14T06:43:17.372Z,4.20
2017-07-14T06:45:44.973Z,5.03
2017-07-14T06:48:12.581Z,4.23
2017-07-14T06:50:40.142Z,4.40
2017-07-14T06:53:07.755Z,3.97
2017-07-14T06:55:35.327Z,4.53
2017-07-14T06:58:02.971Z,4.83
2017-07-14T07:00:31.313Z,4.97
2017-07-14T07:02:58.900Z,4.67
2017-07-14T07:05:26.459Z,4.70
2017-07-14T07:07:54.402Z,4.60
2017-07-14T07:10:21.968Z,4.63
2017-07-14T07:12:49.542Z,4.90
2017-07-14T07:15:17.133Z,4.47
2017-07-14T07:17:44.734Z,4.20
2017-07-14T07:20:12.359Z,5.03
2017-07-14T07:22:40.107Z,5.70
2017-07-14T07:25:07.710Z,4.10
2017-07-14T07:27:35.292Z,3.77
2017-07-14T07:30:02.907Z,3.90
2017-07-14T07:32:30.470Z,4.20
2017-07-14T07:34:58.055Z,4.30
2017-07-14T07:37:25.608Z,3.83
2017-07-14T07:39:53.229Z,4.40
2017-07-14T07:42:21.613Z,4.13
2017-07-14T07:44:49.984Z,4.60
2017-07-14T07:47:24.091Z,4.70
2017-07-14T07:49:51.679Z,4.47
2017-07-14T07:52:19.262Z,4.70
2017-07-14T07:54:46.851Z,4.87
2017-07-14T07:57:14.417Z,5.20
2017-07-14T07:59:41.987Z,4.97
2017-07-14T08:02:10.320Z,4.40
2017-07-14T08:04:37.902Z,5.23
2017-07-14T08:07:05.484Z,4.90
2017-07-14T08:09:33.102Z,3.93
2017-07-14T08:12:00.674Z,4.23
2017-07-14T08:14:28.289Z,4.47
2017-07-14T08:16:55.900Z,4.37
2017-07-14T08:19:23.481Z,4.50
2017-07-14T08:21:51.052Z,3.80
2017-07-14T08:24:18.629Z,4.43
2017-07-14T08:26:46.180Z,4.97
2017-07-14T08:29:13.759Z,4.53
2017-07-14T08:31:41.336Z,4.77
2017-07-14T08:34:08.918Z,4.97
2017-07-14T08:36:36.491Z,5.17
2017-07-14T08:39:04.050Z,4.97
2017-07-14T08:41:31.614Z,5.23
2017-07-14T08:43:59.190Z,5.77
2017-07-14T08:46:26.803Z,4.90
2017-07-14T08:48:54.379Z,5.37
2017-07-14T08:51:21.957Z,4.27
2017-07-14T08:53:49.517Z,4.77
2017-07-14T08:56:17.106Z,5.00
2017-07-14T08:58:44.678Z,4.77
2017-07-14T09:01:12.327Z,4.80
2017-07-14T09:03:39.913Z,4.00
2017-07-14T09:06:07.486Z,4.47
2017-07-14T09:08:35.049Z,4.87
2017-07-14T09:11:02.670Z,4.60
2017-07-14T09:13:30.296Z,3.97
2017-07-14T09:15:57.882Z,4.53
2017-07-14T09:18:25.462Z,4.90
2017-07-14T09:20:53.038Z,5.63
2017-07-14T09:23:20.609Z,5.40
2017-07-14T09:25:48.200Z,5.37
2017-07-14T09:28:15.768Z,4.60
2017-07-14T09:30:43.344Z,4.57
2017-07-14T09:33:10.941Z,5.33
2017-07-14T09:35:38.518Z,4.83
2017-07-14T09:38:06.088Z,4.27
2017-07-14T09:40:33.695Z,4.07
2017-07-14T09:43:01.246Z,5.47
2017-07-14T09:45:28.833Z,4.80
2017-07-14T09:47:56.408Z,5.30
2017-07-14T09:50:24.753Z,4.20
2017-07-14T09:52:52.319Z,3.90
2017-07-14T09:55:19.889Z,3.90
2017-07-14T09:57:47.467Z,4.70
2017-07-14T10:00:15.843Z,5.47
2017-07-14T10:02:43.432Z,4.30
2017-07-14T10:05:11.019Z,4.50
2017-07-14T10:07:38.683Z,3.77
2017-07-14T10:10:06.255Z,4.40
2017-07-14T10:12:33.825Z,4.40
2017-07-14T10:15:02.184Z,3.83
2017-07-14T10:17:29.772Z,4.50
2017-07-14T10:19:58.128Z,3.57
2017-07-14T10:22:25.712Z,3.27
2017-07-14T10:24:54.220Z,3.43
2017-07-14T10:27:21.812Z,3.47
2017-07-14T10:29:49.366Z,3.33
2017-07-14T10:32:16.952Z,3.70
2017-07-14T10:34:44.529Z,3.47
2017-07-14T10:37:12.145Z,3.43
2017-07-14T10:39:39.756Z,3.97
2017-07-14T10:42:07.333Z,3.70
2017-07-14T10:44:34.926Z,3.60
2017-07-14T10:47:02.502Z,3.47
2017-07-14T10:49:30.078Z,3.70
2017-07-14T10:51:57.653Z,3.20
2017-07-14T10:54:25.234Z,3.10
2017-07-14T10:56:52.869Z,2.73
2017-07-14T10:59:20.469Z,2.30
2017-07-14T11:01:48.105Z,2.57
2017-07-14T11:04:15.691Z,2.20
2017-07-14T11:06:43.289Z,2.40
2017-07-14T11:09:10.877Z,1.87
2017-07-14T11:11:38.490Z,3.10
2017-07-14T11:14:06.094Z,2.30
2017-07-14T11:16:33.676Z,2.10
2017-07-14T11:19:01.265Z,2.43
2017-07-14T11:21:28.856Z,2.50
2017-07-14T11:23:56.420Z,2.83
2017-07-14T11:26:24.029Z,2.90
2017-07-14T11:28:51.625Z,3.00
2017-07-14T11:31:21.332Z,2.40
2017-07-14T11:33:48.943Z,2.63
2017-07-14T11:36:16.532Z,2.30
2017-07-14T11:38:44.117Z,1.83
2017-07-14T11:41:11.757Z,2.43
2017-07-14T11:43:39.362Z,2.40
2017-07-14T11:46:06.954Z,2.30
2017-07-14T11:48:34.551Z,2.90
2017-07-14T11:51:02.191Z,3.40
2017-07-14T11:53:29.790Z,3.10
2017-07-14T11:55:57.388Z,3.10
2017-07-14T11:58:25.019Z,3.37
2017-07-14T12:00:52.630Z,2.97
2017-07-14T12:03:20.240Z,2.23
2017-07-14T12:05:47.860Z,2.60
2017-07-14T12:08:15.454Z,4.50
2017-07-14T12:10:43.017Z,4.13
2017-07-14T12:13:10.596Z,3.37
2017-07-14T12:15:38.164Z,3.00
2017-07-14T12:18:05.753Z,4.00
2017-07-14T12:20:33.349Z,3.50
2017-07-14T12:23:00.971Z,3.60
2017-07-14T12:25:28.539Z,3.97
2017-07-14T12:27:56.887Z,4.23
2017-07-14T12:30:24.467Z,4.50
2017-07-14T12:32:52.046Z,4.60
2017-07-14T12:35:19.612Z,4.97
2017-07-14T12:37:47.185Z,4.73
2017-07-14T12:40:14.767Z,4.93
2017-07-14T12:42:42.373Z,5.50
2017-07-14T12:45:10.756Z,5.60
2017-07-14T12:47:39.104Z,5.50
2017-07-14T12:50:06.657Z,4.77
2017-07-14T12:52:34.238Z,5.17
2017-07-14T12:55:01.811Z,4.80
2017-07-14T12:57:30.147Z,4.37
2017-07-14T12:59:57.728Z,4.50
2017-07-14T13:02:25.305Z,4.43
2017-07-14T13:04:52.881Z,5.33
2017-07-14T13:07:20.730Z,5.37
2017-07-14T13:09:49.064Z,4.87
2017-07-14T13:12:16.625Z,5.17
2017-07-14T13:14:44.217Z,4.47
2017-07-14T13:17:11.831Z,5.70
2017-07-14T13:19:39.459Z,5.50
2017-07-14T13:22:07.867Z,5.07
2017-07-14T13:24:35.451Z,4.60
2017-07-14T13:27:03.023Z,4.20
2017-07-14T13:29:30.593Z,4.93
2017-07-14T13:31:58.923Z,5.40
2017-07-14T13:34:26.539Z,4.30
2017-07-14T13:36:54.099Z,5.17
2017-07-14T13:39:22.447Z,6.50
2017-07-14T13:41:50.037Z,4.43
2017-07-14T13:44:18.386Z,5.70
2017-07-14T13:46:45.964Z,4.93
2017-07-14T13:49:13.536Z,5.30
2017-07-14T13:51:41.961Z,5.10
2017-07-14T13:54:09.566Z,4.70
2017-07-14T13:56:37.149Z,4.30
2017-07-14T13:59:04.730Z,4.90
2017-07-14T14:01:32.287Z,4.40
2017-07-14T14:03:59.884Z,4.57
2017-07-14T14:06:27.465Z,3.50
2017-07-14T14:08:55.057Z,3.73
2017-07-14T14:11:22.594Z,3.60
2017-07-14T14:13:50.177Z,3.93
2017-07-14T14:16:17.804Z,3.80
2017-07-14T14:18:45.383Z,3.60
2017-07-14T14:21:12.940Z,3.90
2017-07-14T14:23:40.576Z,3.10
2017-07-14T14:26:08.908Z,3.40
2017-07-14T14:28:36.578Z,4.43
2017-07-14T14:31:04.151Z,3.30
2017-07-14T14:33:31.728Z,3.00
2017-07-14T14:36:00.054Z,2.30
2017-07-14T14:38:27.909Z,2.90
2017-07-14T14:40:55.483Z,2.03
2017-07-14T14:43:23.052Z,1.83
2017-07-14T14:45:50.637Z,1.70
2017-07-14T14:48:18.200Z,1.40
2017-07-14T14:50:46.556Z,1.30
2017-07-14T14:53:14.133Z,1.33
2017-07-14T14:55:42.486Z,1.70
2017-07-14T14:58:10.064Z,1.43
2017-07-14T15:00:37.650Z,1.50
2017-07-14T15:03:05.232Z,1.70
2017-07-14T15:05:32.830Z,1.60
2017-07-14T15:08:00.730Z,1.47
2017-07-14T15:10:28.327Z,1.23
2017-07-14T15:12:55.905Z,1.37
2017-07-14T15:15:23.490Z,1.53
2017-07-14T15:17:51.075Z,1.50
2017-07-14T15:20:18.683Z,1.00
2017-07-14T15:22:46.258Z,2.10
2017-07-14T15:25:13.832Z,1.47
2017-07-14T15:27:42.183Z,1.43
2017-07-14T15:30:09.760Z,1.57
2017-07-14T15:32:37.365Z,1.37
2017-07-14T15:35:04.955Z,1.33
2017-07-14T15:37:32.623Z,1.13
2017-07-14T15:40:00.247Z,1.30
2017-07-14T15:42:27.813Z,1.20
2017-07-14T15:44:55.418Z,1.20
2017-07-14T15:47:23.003Z,1.10
2017-07-14T15:49:50.614Z,0.90
2017-07-14T15:52:18.184Z,1.40
2017-07-14T15:54:45.775Z,1.20
2017-07-14T15:57:14.118Z,1.40
2017-07-14T15:59:41.716Z,1.50
2017-07-14T16:02:09.284Z,1.73
2017-07-14T16:04:36.893Z,1.63
2017-07-14T16:07:04.473Z,1.40
2017-07-14T16:09:33.107Z,1.40
2017-07-14T16:12:00.716Z,1.50
2017-07-14T16:14:28.278Z,1.60
2017-07-14T16:16:56.624Z,1.50
2017-07-14T16:19:24.187Z,2.00
2017-07-14T16:21:51.786Z,1.80
2017-07-14T16:24:20.106Z,1.97
2017-07-14T16:26:47.693Z,1.73
2017-07-14T16:29:15.297Z,1.90
2017-07-14T16:31:42.902Z,1.73
2017-07-14T16:34:10.481Z,2.20
2017-07-14T16:36:38.054Z,2.00
2017-07-14T16:39:05.616Z,2.20
2017-07-14T16:41:33.209Z,2.40
2017-07-14T16:44:00.781Z,1.83
2017-07-14T16:46:28.383Z,2.03
2017-07-14T16:48:56.748Z,2.10
2017-07-14T16:51:24.340Z,2.23
2017-07-14T16:53:51.984Z,2.40
2017-07-14T16:56:20.320Z,2.43
2017-07-14T16:58:47.892Z,2.20
2017-07-14T17:01:16.252Z,2.03
2017-07-14T17:03:43.814Z,3.50
2017-07-14T17:06:11.399Z,4.90
2017-07-14T17:08:38.961Z,3.00
2017-07-14T17:11:06.630Z,3.77
2017-07-14T17:13:34.222Z,6.30
2017-07-14T17:16:01.821Z,4.93
2017-07-14T17:18:29.374Z,4.67
2017-07-14T17:20:56.967Z,8.43
2017-07-14T17:23:25.308Z,5.57
2017-07-14T17:25:52.893Z,4.90
2017-07-14T17:28:21.422Z,6.83
2017-07-14T17:30:49.019Z,6.90
2017-07-14T17:33:16.583Z,5.40
2017-07-14T17:35:44.170Z,4.27
2017-07-14T17:38:11.770Z,4.70
2017-07-14T17:40:39.627Z,4.90
2017-07-14T17:43:07.206Z,5.20
2017-07-14T17:45:34.789Z,4.10
2017-07-14T17:48:02.370Z,4.00
2017-07-14T17:50:29.982Z,3.17
2017-07-14T17:52:57.561Z,4.07
2017-07-14T17:55:25.137Z,3.77
2017-07-14T17:57:53.502Z,3.22
2017-07-14T18:00:21.858Z,4.30
2017-07-14T18:02:49.440Z,4.20
2017-07-14T18:05:17.024Z,3.57
2017-07-14T18:07:44.641Z,3.97
2017-07-14T18:10:12.230Z,3.97
2017-07-14T18:12:40.282Z,3.40
2017-07-14T18:15:07.902Z,3.37
2017-07-14T18:17:35.485Z,2.40
2017-07-14T18:20:03.821Z,3.07
2017-07-14T18:22:31.388Z,2.67
2017-07-14T18:24:59.054Z,3.00
2017-07-14T18:27:26.691Z,2.87
2017-07-14T18:29:54.298Z,3.07
2017-07-14T18:32:21.911Z,2.80
2017-07-14T18:34:49.515Z,3.30
2017-07-14T18:37:17.111Z,3.78
2017-07-14T18:39:44.695Z,3.30
2017-07-14T18:42:12.598Z,3.50
2017-07-14T18:44:41.104Z,3.47
2017-07-14T18:47:08.692Z,3.50
2017-07-14T18:49:37.043Z,4.03
2017-07-14T18:52:04.712Z,3.70
2017-07-14T18:54:33.069Z,3.47
2017-07-14T18:57:00.654Z,3.67
2017-07-14T18:59:29.031Z,3.57
2017-07-14T19:01:56.613Z,3.40
2017-07-14T19:04:24.205Z,3.50
2017-07-14T19:06:51.810Z,4.27
2017-07-14T19:09:20.303Z,4.03
2017-07-14T19:11:48.284Z,3.83
2017-07-14T19:14:16.076Z,4.37
2017-07-14T19:16:43.703Z,4.10
2017-07-14T19:19:11.295Z,3.70
2017-07-14T19:21:38.915Z,4.00
2017-07-14T19:24:06.528Z,4.20
2017-07-14T19:26:34.267Z,4.10
2017-07-14T19:29:01.891Z,4.70
2017-07-14T19:31:30.247Z,4.60
2017-07-14T19:33:58.002Z,4.30
2017-07-14T19:36:26.394Z,4.33
2017-07-14T19:38:54.764Z,4.20
2017-07-14T19:41:23.150Z,4.40
2017-07-14T19:43:51.773Z,4.17
2017-07-14T19:46:19.465Z,4.43
2017-07-14T19:48:47.057Z,4.10
2017-07-14T19:51:15.440Z,4.27
2017-07-14T19:53:43.149Z,4.37
2017-07-14T19:56:10.774Z,5.20
2017-07-14T19:58:38.361Z,3.80
2017-07-14T20:01:05.920Z,3.23
2017-07-14T20:03:33.521Z,3.80
2017-07-14T20:06:01.136Z,3.10
2017-07-14T20:08:28.769Z,3.60
2017-07-14T20:10:57.122Z,3.20
2017-07-14T20:13:24.849Z,3.23
2017-07-14T20:15:52.541Z,3.17
2017-07-14T20:18:20.931Z,3.30
2017-07-14T20:20:49.294Z,2.70
2017-07-14T20:23:16.903Z,3.40
2017-07-14T20:25:44.490Z,3.50
2017-07-14T20:28:12.200Z,3.50
2017-07-14T20:30:40.528Z,3.27
2017-07-14T20:33:08.148Z,3.93
2017-07-14T20:35:36.501Z,3.83
2017-07-14T20:38:04.284Z,3.63
2017-07-14T20:40:31.912Z,3.73
2017-07-14T20:42:59.493Z,2.50
2017-07-14T20:45:27.098Z,2.63
2017-07-14T20:47:54.855Z,3.53
2017-07-14T20:50:22.487Z,3.27
2017-07-14T20:52:50.825Z,3.15
2017-07-14T20:55:18.410Z,3.12
2017-07-14T20:57:46.034Z,2.90
2017-07-14T21:00:13.613Z,2.63
2017-07-14T21:02:41.177Z,3.10
2017-07-14T21:05:08.775Z,3.03
2017-07-14T21:07:36.338Z,3.33
2017-07-14T21:10:03.941Z,2.80
2017-07-14T21:12:31.552Z,3.20
2017-07-14T21:14:59.137Z,2.90
2017-07-14T21:17:26.729Z,3.03
2017-07-14T21:19:54.617Z,3.60
2017-07-14T21:22:22.237Z,2.90
2017-07-14T21:24:49.841Z,3.10
2017-07-14T21:27:18.192Z,3.10
2017-07-14T21:29:46.047Z,3.23
2017-07-14T21:32:13.629Z,3.10
2017-07-14T21:34:41.188Z,3.93
2017-07-14T21:37:08.911Z,3.50
2017-07-14T21:39:36.475Z,4.27
2017-07-14T21:42:04.047Z,3.80
2017-07-14T21:44:31.614Z,4.10
2017-07-14T21:46:59.193Z,4.23
2017-07-14T21:49:27.513Z,4.30
2017-07-14T21:51:55.101Z,4.10
2017-07-14T21:54:22.684Z,4.60
2017-07-14T21:56:51.028Z,5.00
2017-07-14T21:59:18.606Z,4.28
2017-07-14T22:01:46.190Z,4.62
2017-07-14T22:04:14.530Z,4.43
2017-07-14T22:06:42.115Z,5.07
2017-07-14T22:09:10.451Z,4.53
2017-07-14T22:11:38.037Z,4.43
2017-07-14T22:14:05.628Z,4.32
2017-07-14T22:16:33.240Z,4.60
2017-07-14T22:19:00.799Z,4.77
2017-07-14T22:21:28.377Z,4.97
2017-07-14T22:23:56.021Z,4.97
2017-07-14T22:26:23.616Z,4.22
2017-07-14T22:28:51.180Z,4.15
2017-07-14T22:31:18.749Z,4.55
2017-07-14T22:33:46.315Z,4.30
2017-07-14T22:36:13.897Z,4.68
2017-07-14T22:38:41.457Z,4.20
2017-07-14T22:41:09.037Z,4.18
2017-07-14T22:43:36.596Z,4.75
2017-07-14T22:46:04.170Z,4.00
2017-07-14T22:48:31.744Z,4.70
2017-07-14T22:51:00.168Z,4.50
2017-07-14T22:53:27.714Z,4.67
2017-07-14T22:55:55.286Z,4.40
2017-07-14T22:58:22.866Z,4.80
2017-07-14T23:00:50.728Z,4.05
2017-07-14T23:03:18.295Z,4.78
2017-07-14T23:05:45.862Z,4.73
2017-07-14T23:08:13.488Z,5.18
2017-07-14T23:10:41.069Z,4.80
2017-07-14T23:13:08.634Z,6.00
2017-07-14T23:15:36.203Z,4.68
2017-07-14T23:18:03.791Z,5.28
2017-07-14T23:20:31.360Z,5.25
2017-07-14T23:22:58.936Z,4.87
2017-07-14T23:25:26.521Z,5.62
2017-07-14T23:27:54.102Z,4.62
2017-07-14T23:30:21.683Z,4.17
2017-07-14T23:32:49.253Z,4.97
2017-07-14T23:35:16.822Z,5.28
2017-07-14T23:37:44.404Z,5.50
2017-07-14T23:40:11.964Z,6.18
2017-07-14T23:42:39.685Z,6.55
2017-07-14T23:45:07.286Z,7.07
2017-07-14T23:47:34.869Z,6.62
2017-07-14T23:50:02.428Z,6.50
2017-07-14T23:52:30.014Z,6.80
2017-07-14T23:54:57.580Z,6.00
2017-07-14T23:57:25.151Z,6.55
2017-07-14T23:59:52.738Z,5.90
